Sakura — JG5711 — position and weather

sailwx.info

Track history (hours):
 
Tides and Currents Weather Stations Pressure Air Temp Water Temp Dewpoint Dewpoint Depression Visibility Wind Speed Wind Dir Waves Ship Positions

Sakura

Last reported at 2014-Dec-23 03:26 UTC. Time now 2014-Dec-23 03:45 UTC.
Position N 35°31' E 139°56'.

Length 32 m; draft 3.6 m.

Type: Tug. MMSI: 431101178.

Date/timePositionNaut miles runAvg speedWind from/ knotsBaromVisibWave heightAir tempDewpointWater temp
2014-Dec-23 03:26N 35°31' E 139°56'3 0.9
2014-Dec-23 00:32N 35°29' E 139°54'2 2.1
2014-Dec-22 23:33N 35°28' E 139°51'6 6.5
2014-Dec-22 22:33N 35°30' E 139°44'2 2.1
2014-Dec-22 21:33N 35°29' E 139°42'3 3.1
2014-Dec-22 20:33N 35°27' E 139°39'0 0.0
2014-Dec-22 07:12N 35°27' E 139°39'0 0.0
2014-Dec-22 06:33N 35°27' E 139°39'0 0.0
2014-Dec-22 05:33N 35°27' E 139°39'0 0.0
2014-Dec-22 04:33N 35°27' E 139°39'0 0.0
2014-Dec-22 03:33N 35°27' E 139°39'0 0.0
2014-Dec-22 02:33N 35°27' E 139°39'4 3.7
2014-Dec-22 01:33N 35°24' E 139°40'2 2.0
2014-Dec-22 00:34N 35°24' E 139°38'2 1.5
2014-Dec-21 23:33N 35°24' E 139°40'1 0.6
2014-Dec-21 22:33N 35°23' E 139°41'3 3.5
2014-Dec-21 21:33N 35°27' E 139°41'2 2.3
2014-Dec-21 20:33N 35°27' E 139°39'0 0.0
2014-Dec-21 07:28N 35°27' E 139°39'2 2.3
2014-Dec-21 06:34N 35°26' E 139°41'2 2.1
2014-Dec-21 05:34N 35°27' E 139°39'0 0.0
2014-Dec-21 04:34N 35°27' E 139°39'0 0.0
2014-Dec-21 03:33N 35°27' E 139°39'1 1.3
2014-Dec-21 02:34N 35°27' E 139°40'4 3.4
2014-Dec-21 01:31N 35°28' E 139°44'4 4.4
2014-Dec-21 00:33N 35°27' E 139°39'2 2.2
2014-Dec-20 23:33N 35°26' E 139°42'2 2.3
2014-Dec-20 22:34N 35°24' E 139°41'3 2.5
2014-Dec-20 21:33N 35°26' E 139°42'2 1.8
2014-Dec-20 20:34N 35°28' E 139°41'2 2.3
2014-Dec-20 19:33N 35°27' E 139°39'47759.5
2014-Dec-20 11:32N 33°43' E 130°13'477226.6
2014-Dec-20 09:26N 35°27' E 139°39'0 0.0
2014-Dec-20 08:34N 35°27' E 139°39'0 0.0
2014-Dec-20 07:34N 35°27' E 139°39'0 0.0
2014-Dec-20 06:33N 35°27' E 139°39'1 0.7
2014-Dec-20 05:33N 35°27' E 139°39'1 1.4
2014-Dec-20 04:33N 35°27' E 139°41'1 1.3
2014-Dec-20 03:33N 35°27' E 139°42'3 2.6
2014-Dec-20 02:33N 35°29' E 139°45'4 4.4
2014-Dec-20 01:34N 35°27' E 139°40'0 0.0
2014-Dec-20 00:34N 35°27' E 139°40'0 0.0
2014-Dec-19 23:33N 35°27' E 139°40'0 0.0
2014-Dec-18 22:34N 35°27' E 139°40'2 1.9
2014-Dec-18 21:33N 35°27' E 139°42'0 0.3
2014-Dec-18 20:33N 35°27' E 139°42'1 1.0
2014-Dec-18 19:33N 35°27' E 139°41'1 1.2
2014-Dec-18 18:33N 35°28' E 139°41'0 0.0
2014-Dec-18 17:33N 35°28' E 139°41'0 0.0
2014-Dec-18 16:33N 35°28' E 139°41'0 0.0
2014-Dec-18 15:33N 35°28' E 139°41'1 1.1
2014-Dec-18 14:33N 35°27' E 139°41'1 0.9
2014-Dec-18 13:33N 35°27' E 139°42'0 0.0
2014-Dec-18 12:33N 35°27' E 139°42'0 0.0
2014-Dec-18 11:33N 35°27' E 139°42'2 1.9
2014-Dec-18 10:34N 35°27' E 139°40'3 2.6
2014-Dec-18 09:33N 35°26' E 139°43'2 1.7
2014-Dec-18 08:33N 35°27' E 139°42'1 1.4
2014-Dec-18 07:33N 35°27' E 139°41'1 0.9
2014-Dec-18 06:33N 35°28' E 139°42'2 1.8
2014-Dec-18 05:33N 35°27' E 139°40'0 0.0
2014-Dec-18 04:33N 35°27' E 139°40'0 0.0
2014-Dec-18 03:33N 35°27' E 139°40'0 0.0
2014-Dec-18 02:33N 35°27' E 139°40'1 1.0
2014-Dec-18 01:33N 35°27' E 139°39'0 0.0
2014-Dec-18 00:34N 35°27' E 139°39'2 2.2
2014-Dec-17 23:33N 35°26' E 139°41'2 2.2
2014-Dec-17 22:33N 35°27' E 139°39'0 0.0
2014-Dec-17 21:33N 35°27' E 139°39'0 0.0
2014-Dec-17 20:33N 35°27' E 139°39'0 0.0
2014-Dec-17 07:12N 35°27' E 139°39'0 0.0
2014-Dec-17 06:33N 35°27' E 139°39'5 4.9
2014-Dec-17 05:32N 35°29' E 139°44'1 0.9
2014-Dec-17 04:33N 35°28' E 139°45'2 1.7
2014-Dec-17 03:33N 35°28' E 139°47'6 5.6
2014-Dec-17 02:34N 35°28' E 139°40'1 1.0
2014-Dec-17 01:33N 35°27' E 139°40'1 1.5
2014-Dec-17 00:33N 35°26' E 139°42'4 4.0
2014-Dec-16 23:33N 35°24' E 139°38'2 1.8
2014-Dec-16 22:33N 35°24' E 139°40'3 2.9
2014-Dec-16 21:33N 35°26' E 139°42'3 2.8
2014-Dec-16 20:33N 35°27' E 139°39'0 0.0
2014-Dec-16 09:11N 35°27' E 139°39'5 7.9
2014-Dec-16 08:33N 35°30' E 139°44'3 3.1
2014-Dec-16 07:33N 35°28' E 139°41'2 1.9
2014-Dec-16 06:33N 35°27' E 139°39'0 0.0
2014-Dec-16 05:33N 35°27' E 139°39'0 0.0
2014-Dec-16 04:33N 35°27' E 139°39'0 0.0
2014-Dec-16 03:32N 35°27' E 139°39'0 0.0
2014-Dec-16 02:33N 35°27' E 139°39'0 0.0
2014-Dec-16 01:27N 35°27' E 139°39'0 0.0
2014-Dec-16 00:26N 35°27' E 139°39'0 0.0
2014-Dec-15 23:33N 35°27' E 139°39'1 1.2
2014-Dec-15 22:33N 35°28' E 139°39'1 1.4
2014-Dec-15 21:33N 35°28' E 139°40'2 1.5
2014-Dec-15 20:33N 35°27' E 139°39'0 0.0
2014-Dec-15 08:07N 35°27' E 139°39'5 8.8
2014-Dec-15 07:33N 35°28' E 139°45'3 2.7
2014-Dec-15 06:32N 35°31' E 139°45'4 3.8
2014-Dec-15 05:33N 35°28' E 139°41'3 2.5
2014-Dec-15 04:33N 35°27' E 139°39'0 0.0
2014-Dec-15 03:34N 35°27' E 139°39'0 0.0
2014-Dec-15 02:33N 35°27' E 139°39'0 0.0
2014-Dec-15 01:33N 35°27' E 139°39'0 0.0
2014-Dec-15 00:33N 35°27' E 139°39'3 3.0
2014-Dec-14 23:34N 35°29' E 139°42'3 2.6
2014-Dec-14 22:33N 35°30' E 139°45'4 4.0
2014-Dec-14 21:33N 35°26' E 139°44'4 4.2
2014-Dec-14 20:33N 35°27' E 139°39'0 0.0
2014-Dec-13 07:10N 35°27' E 139°39'0 0.0
2014-Dec-13 06:33N 35°27' E 139°39'0 0.0
2014-Dec-13 05:33N 35°27' E 139°39'0 0.0
2014-Dec-13 04:33N 35°27' E 139°39'1 0.7
2014-Dec-13 03:33N 35°27' E 139°39'  
Track history (hours):
 
Tides and Currents Weather Stations Pressure Air Temp Water Temp Dewpoint Dewpoint Depression Visibility Wind Speed Wind Dir Waves Ship Positions

Sakura

Last reported at 2014-Dec-23 03:26 UTC. Time now 2014-Dec-23 03:45 UTC.
Position N 35°31' E 139°56'.

Length 32 m; draft 3.6 m.

Type: Tug. MMSI: 431101178.

Date/timePositionNaut miles runAvg speedWind from/ knotsBaromVisibWave heightAir tempDewpointWater temp
2014-Dec-23 03:26N 35°31' E 139°56'3 0.9
2014-Dec-23 00:32N 35°29' E 139°54'2 2.1
2014-Dec-22 23:33N 35°28' E 139°51'6 6.5
2014-Dec-22 22:33N 35°30' E 139°44'2 2.1
2014-Dec-22 21:33N 35°29' E 139°42'3 3.1
2014-Dec-22 20:33N 35°27' E 139°39'0 0.0
2014-Dec-22 07:12N 35°27' E 139°39'0 0.0
2014-Dec-22 06:33N 35°27' E 139°39'0 0.0
2014-Dec-22 05:33N 35°27' E 139°39'0 0.0
2014-Dec-22 04:33N 35°27' E 139°39'0 0.0
2014-Dec-22 03:33N 35°27' E 139°39'0 0.0
2014-Dec-22 02:33N 35°27' E 139°39'4 3.7
2014-Dec-22 01:33N 35°24' E 139°40'2 2.0
2014-Dec-22 00:34N 35°24' E 139°38'2 1.5
2014-Dec-21 23:33N 35°24' E 139°40'1 0.6
2014-Dec-21 22:33N 35°23' E 139°41'3 3.5
2014-Dec-21 21:33N 35°27' E 139°41'2 2.3
2014-Dec-21 20:33N 35°27' E 139°39'0 0.0
2014-Dec-21 07:28N 35°27' E 139°39'2 2.3
2014-Dec-21 06:34N 35°26' E 139°41'2 2.1
2014-Dec-21 05:34N 35°27' E 139°39'0 0.0
2014-Dec-21 04:34N 35°27' E 139°39'0 0.0
2014-Dec-21 03:33N 35°27' E 139°39'1 1.3
2014-Dec-21 02:34N 35°27' E 139°40'4 3.4
2014-Dec-21 01:31N 35°28' E 139°44'4 4.4
2014-Dec-21 00:33N 35°27' E 139°39'2 2.2
2014-Dec-20 23:33N 35°26' E 139°42'2 2.3
2014-Dec-20 22:34N 35°24' E 139°41'3 2.5
2014-Dec-20 21:33N 35°26' E 139°42'2 1.8
2014-Dec-20 20:34N 35°28' E 139°41'2 2.3
2014-Dec-20 19:33N 35°27' E 139°39'47759.5
2014-Dec-20 11:32N 33°43' E 130°13'477226.6
2014-Dec-20 09:26N 35°27' E 139°39'0 0.0
2014-Dec-20 08:34N 35°27' E 139°39'0 0.0
2014-Dec-20 07:34N 35°27' E 139°39'0 0.0
2014-Dec-20 06:33N 35°27' E 139°39'1 0.7
2014-Dec-20 05:33N 35°27' E 139°39'1 1.4
2014-Dec-20 04:33N 35°27' E 139°41'1 1.3
2014-Dec-20 03:33N 35°27' E 139°42'3 2.6
2014-Dec-20 02:33N 35°29' E 139°45'4 4.4
2014-Dec-20 01:34N 35°27' E 139°40'0 0.0
2014-Dec-20 00:34N 35°27' E 139°40'0 0.0
2014-Dec-19 23:33N 35°27' E 139°40'0 0.0
2014-Dec-18 22:34N 35°27' E 139°40'2 1.9
2014-Dec-18 21:33N 35°27' E 139°42'0 0.3
2014-Dec-18 20:33N 35°27' E 139°42'1 1.0
2014-Dec-18 19:33N 35°27' E 139°41'1 1.2
2014-Dec-18 18:33N 35°28' E 139°41'0 0.0
2014-Dec-18 17:33N 35°28' E 139°41'0 0.0
2014-Dec-18 16:33N 35°28' E 139°41'0 0.0
2014-Dec-18 15:33N 35°28' E 139°41'1 1.1
2014-Dec-18 14:33N 35°27' E 139°41'1 0.9
2014-Dec-18 13:33N 35°27' E 139°42'0 0.0
2014-Dec-18 12:33N 35°27' E 139°42'0 0.0
2014-Dec-18 11:33N 35°27' E 139°42'2 1.9
2014-Dec-18 10:34N 35°27' E 139°40'3 2.6
2014-Dec-18 09:33N 35°26' E 139°43'2 1.7
2014-Dec-18 08:33N 35°27' E 139°42'1 1.4
2014-Dec-18 07:33N 35°27' E 139°41'1 0.9
2014-Dec-18 06:33N 35°28' E 139°42'2 1.8
2014-Dec-18 05:33N 35°27' E 139°40'0 0.0
2014-Dec-18 04:33N 35°27' E 139°40'0 0.0
2014-Dec-18 03:33N 35°27' E 139°40'0 0.0
2014-Dec-18 02:33N 35°27' E 139°40'1 1.0
2014-Dec-18 01:33N 35°27' E 139°39'0 0.0
2014-Dec-18 00:34N 35°27' E 139°39'2 2.2
2014-Dec-17 23:33N 35°26' E 139°41'2 2.2
2014-Dec-17 22:33N 35°27' E 139°39'0 0.0
2014-Dec-17 21:33N 35°27' E 139°39'0 0.0
2014-Dec-17 20:33N 35°27' E 139°39'0 0.0
2014-Dec-17 07:12N 35°27' E 139°39'0 0.0
2014-Dec-17 06:33N 35°27' E 139°39'5 4.9
2014-Dec-17 05:32N 35°29' E 139°44'1 0.9
2014-Dec-17 04:33N 35°28' E 139°45'2 1.7
2014-Dec-17 03:33N 35°28' E 139°47'6 5.6
2014-Dec-17 02:34N 35°28' E 139°40'1 1.0
2014-Dec-17 01:33N 35°27' E 139°40'1 1.5
2014-Dec-17 00:33N 35°26' E 139°42'4 4.0
2014-Dec-16 23:33N 35°24' E 139°38'2 1.8
2014-Dec-16 22:33N 35°24' E 139°40'3 2.9
2014-Dec-16 21:33N 35°26' E 139°42'3 2.8
2014-Dec-16 20:33N 35°27' E 139°39'0 0.0
2014-Dec-16 09:11N 35°27' E 139°39'5 7.9
2014-Dec-16 08:33N 35°30' E 139°44'3 3.1
2014-Dec-16 07:33N 35°28' E 139°41'2 1.9
2014-Dec-16 06:33N 35°27' E 139°39'0 0.0
2014-Dec-16 05:33N 35°27' E 139°39'0 0.0
2014-Dec-16 04:33N 35°27' E 139°39'0 0.0
2014-Dec-16 03:32N 35°27' E 139°39'0 0.0
2014-Dec-16 02:33N 35°27' E 139°39'0 0.0
2014-Dec-16 01:27N 35°27' E 139°39'0 0.0
2014-Dec-16 00:26N 35°27' E 139°39'0 0.0
2014-Dec-15 23:33N 35°27' E 139°39'1 1.2
2014-Dec-15 22:33N 35°28' E 139°39'1 1.4
2014-Dec-15 21:33N 35°28' E 139°40'2 1.5
2014-Dec-15 20:33N 35°27' E 139°39'0 0.0
2014-Dec-15 08:07N 35°27' E 139°39'5 8.8
2014-Dec-15 07:33N 35°28' E 139°45'3 2.7
2014-Dec-15 06:32N 35°31' E 139°45'4 3.8
2014-Dec-15 05:33N 35°28' E 139°41'3 2.5
2014-Dec-15 04:33N 35°27' E 139°39'0 0.0
2014-Dec-15 03:34N 35°27' E 139°39'0 0.0
2014-Dec-15 02:33N 35°27' E 139°39'0 0.0
2014-Dec-15 01:33N 35°27' E 139°39'0 0.0
2014-Dec-15 00:33N 35°27' E 139°39'3 3.0
2014-Dec-14 23:34N 35°29' E 139°42'3 2.6
2014-Dec-14 22:33N 35°30' E 139°45'4 4.0
2014-Dec-14 21:33N 35°26' E 139°44'4 4.2
2014-Dec-14 20:33N 35°27' E 139°39'0 0.0
2014-Dec-13 07:10N 35°27' E 139°39'0 0.0
2014-Dec-13 06:33N 35°27' E 139°39'0 0.0
2014-Dec-13 05:33N 35°27' E 139°39'0 0.0
2014-Dec-13 04:33N 35°27' E 139°39'1 0.7
2014-Dec-13 03:33N 35°27' E 139°39'  

Dump ship's entire track history